Time;durP1;ratioP1;P1;durP2;ratioP2;P2;SDS_P1;SDS_P2;PMS_P1;PMS_P2;Temp;Humidity;BMP_temperature;BMP_pressure;BME280_temperature;BME280_humidity;BME280_pressure;Samples;Min_cycle;Max_cycle;Signal;HPM_P1;HPM_P2
2021/03/09 00:01:55;;;;;;;16.30;12.60;;;9.70;76.70;;;;;;4797214;29;20046;-67
2021/03/09 00:04:21;;;;;;;19.65;14.05;;;9.90;74.80;;;;;;4790075;29;20043;-67
2021/03/09 00:06:47;;;;;;;18.00;12.35;;;10.00;74.70;;;;;;4797485;29;20136;-67
2021/03/09 00:09:12;;;;;;;22.55;13.75;;;10.30;74.30;;;;;;4797877;29;20100;-67
2021/03/09 00:11:39;;;;;;;18.15;12.82;;;10.40;73.00;;;;;;4796813;29;20062;-66
2021/03/09 00:14:05;;;;;;;17.70;12.32;;;10.70;72.90;;;;;;4781275;29;20062;-67
2021/03/09 00:16:30;;;;;;;15.13;11.15;;;10.40;71.80;;;;;;4797432;29;20111;-67
2021/03/09 00:18:56;;;;;;;15.63;10.68;;;10.40;71.30;;;;;;4796559;29;20458;-67
2021/03/09 00:21:22;;;;;;;18.65;12.43;;;10.70;70.90;;;;;;4797691;29;20045;-67
2021/03/09 00:23:48;;;;;;;17.10;11.82;;;11.10;71.50;;;;;;4797033;29;20042;-67
2021/03/09 00:26:14;;;;;;;13.38;9.63;;;10.90;70.90;;;;;;4796666;29;20043;-67
2021/03/09 00:28:39;;;;;;;14.23;11.13;;;11.10;69.80;;;;;;4797948;29;20042;-67
2021/03/09 00:31:05;;;;;;;20.63;11.52;;;10.50;66.80;;;;;;4796817;29;20126;-67
2021/03/09 00:33:31;;;;;;;14.02;10.93;;;10.10;69.80;;;;;;4797077;29;20158;-67
2021/03/09 00:35:57;;;;;;;18.63;11.70;;;10.30;70.80;;;;;;4797154;29;20399;-67
2021/03/09 00:38:22;;;;;;;13.43;10.70;;;10.50;70.70;;;;;;4797564;29;20061;-67
2021/03/09 00:40:48;;;;;;;13.40;10.43;;;10.40;69.00;;;;;;4811216;29;20472;-67
2021/03/09 00:43:14;;;;;;;14.05;10.07;;;9.50;67.80;;;;;;4797196;29;20047;-67
2021/03/09 00:45:40;;;;;;;12.68;9.88;;;8.60;69.40;;;;;;4790936;29;20075;-67
2021/03/09 00:48:06;;;;;;;17.05;11.27;;;8.10;72.10;;;;;;4797054;29;20035;-67
2021/03/09 00:50:32;;;;;;;13.77;9.75;;;7.60;74.60;;;;;;4797153;29;20480;-67
2021/03/09 00:52:58;;;;;;;13.02;10.48;;;7.40;75.40;;;;;;4797412;29;20047;-67
2021/03/09 00:55:24;;;;;;;14.55;10.45;;;6.80;74.70;;;;;;4797249;29;20055;-67
2021/03/09 00:57:54;;;;;;;12.05;9.63;;;6.40;77.20;;;;;;4796991;29;20119;-66
2021/03/09 01:00:20;;;;;;;15.73;10.20;;;6.40;77.90;;;;;;4783648;29;20041;-66
2021/03/09 01:02:46;;;;;;;19.90;12.18;;;6.40;78.80;;;;;;4801086;29;20070;-66
2021/03/09 01:05:12;;;;;;;15.68;11.00;;;6.80;80.10;;;;;;4799697;29;20081;-66
2021/03/09 01:07:38;;;;;;;15.23;12.05;;;7.00;79.50;;;;;;4800802;29;20511;-66
2021/03/09 01:10:04;;;;;;;15.10;10.85;;;7.30;78.80;;;;;;4800666;29;20043;-67
2021/03/09 01:12:30;;;;;;;16.25;12.00;;;7.70;78.00;;;;;;4800661;29;20499;-67
2021/03/09 01:14:56;;;;;;;16.52;10.73;;;7.80;75.40;;;;;;4778422;29;20061;-67
2021/03/09 01:17:22;;;;;;;15.07;11.52;;;7.60;76.20;;;;;;4800808;29;20453;-66
2021/03/09 01:19:48;;;;;;;15.23;10.80;;;7.20;75.40;;;;;;4814591;29;20129;-66
2021/03/09 01:22:14;;;;;;;16.13;12.52;;;6.80;76.50;;;;;;4795238;29;20058;-66
2021/03/09 01:24:39;;;;;;;12.68;8.68;;;6.50;77.10;;;;;;4793970;29;20507;-67
2021/03/09 01:27:06;;;;;;;16.02;10.43;;;6.20;78.50;;;;;;4813955;29;20038;-66
2021/03/09 01:29:31;;;;;;;19.30;13.05;;;6.20;81.10;;;;;;4800428;29;20180;-66
2021/03/09 01:31:57;;;;;;;18.60;13.80;;;6.20;80.80;;;;;;4800560;29;20131;-67
2021/03/09 01:34:23;;;;;;;17.77;13.50;;;6.40;79.30;;;;;;4800530;29;20125;-67
2021/03/09 01:36:49;;;;;;;15.93;10.65;;;6.70;79.10;;;;;;4800005;29;20046;-67
2021/03/09 01:39:15;;;;;;;17.40;13.38;;;6.80;78.60;;;;;;4800607;29;20055;-67
2021/03/09 01:41:41;;;;;;;19.95;14.43;;;7.10;79.50;;;;;;4800421;29;20380;-68
2021/03/09 01:44:06;;;;;;;17.60;12.70;;;7.00;77.20;;;;;;4800274;29;20050;-67
2021/03/09 01:46:33;;;;;;;13.60;9.52;;;7.10;77.30;;;;;;4799653;29;20149;-67
2021/03/09 01:48:59;;;;;;;18.83;13.63;;;7.00;77.90;;;;;;4813880;29;20134;-67
2021/03/09 01:51:25;;;;;;;19.27;13.85;;;6.70;77.70;;;;;;4800226;29;20054;-67
2021/03/09 01:53:51;;;;;;;16.25;12.85;;;6.40;77.40;;;;;;4799875;29;20389;-66
2021/03/09 01:56:17;;;;;;;16.80;13.60;;;6.30;78.60;;;;;;4799938;29;20054;-66
2021/03/09 01:58:48;;;;;;;15.65;12.18;;;6.20;78.70;;;;;;4799974;29;20054;-67
2021/03/09 02:01:16;;;;;;;17.23;12.40;;;6.00;78.40;;;;;;4800108;29;20047;-67
2021/03/09 02:03:42;;;;;;;15.85;12.10;;;5.70;78.80;;;;;;4799794;29;20054;-67
2021/03/09 02:06:12;;;;;;;17.88;12.80;;;5.60;79.60;;;;;;4793669;29;20046;-67
2021/03/09 02:08:37;;;;;;;15.35;11.10;;;5.70;81.10;;;;;;4799853;29;20043;-67
2021/03/09 02:11:14;;;;;;;18.20;13.48;;;6.00;80.80;;;;;;4798326;29;20046;-67
2021/03/09 02:13:59;;;;;;;19.50;13.48;;;5.90;80.00;;;;;;4799947;29;20046;-67
2021/03/09 02:16:50;;;;;;;18.27;13.43;;;5.60;79.50;;;;;;4798560;29;20146;-66
2021/03/09 02:19:50;;;;;;;18.77;13.90;;;5.30;80.50;;;;;;4798084;29;20046;-67
2021/03/09 02:22:48;;;;;;;13.73;8.95;;;5.10;81.60;;;;;;4799547;29;20061;-67
2021/03/09 02:25:28;;;;;;;16.25;11.93;;;5.40;83.40;;;;;;4813310;29;20038;-67
2021/03/09 02:28:28;;;;;;;18.70;14.02;;;5.70;83.80;;;;;;4792872;29;20039;-67
2021/03/09 02:30:56;;;;;;;14.10;9.95;;;6.00;82.50;;;;;;4798965;29;20082;-67
2021/03/09 02:33:33;;;;;;;14.65;10.73;;;6.40;82.40;;;;;;4798789;29;20051;-66
2021/03/09 02:35:59;;;;;;;20.52;14.20;;;7.20;81.50;;;;;;4799791;29;20046;-67
2021/03/09 02:38:27;;;;;;;21.83;15.65;;;7.40;78.70;;;;;;4797687;29;20039;-67
2021/03/09 02:40:59;;;;;;;21.95;14.93;;;7.10;77.70;;;;;;4797728;29;20049;-67
2021/03/09 02:43:29;;;;;;;19.33;13.60;;;6.70;78.40;;;;;;4799003;29;20043;-66
2021/03/09 02:45:58;;;;;;;17.50;13.50;;;6.20;78.50;;;;;;4799117;29;20077;-66
2021/03/09 02:48:26;;;;;;;21.60;15.18;;;6.10;79.80;;;;;;4798578;29;20039;-66
2021/03/09 02:50:56;;;;;;;20.40;15.00;;;6.10;80.50;;;;;;4799033;29;20078;-67
2021/03/09 02:53:26;;;;;;;20.00;14.40;;;6.20;79.90;;;;;;4799166;29;20753;-66
2021/03/09 02:55:52;;;;;;;12.45;8.40;;;6.10;79.90;;;;;;4798648;29;20045;-66
2021/03/09 02:58:20;;;;;;;19.45;13.52;;;6.00;81.60;;;;;;4797822;29;20057;-66
2021/03/09 03:00:51;;;;;;;19.17;13.98;;;6.10;81.70;;;;;;4799080;29;20053;-66
2021/03/09 03:03:18;;;;;;;21.33;15.30;;;6.20;81.90;;;;;;4798983;29;20047;-67
2021/03/09 03:05:46;;;;;;;24.08;14.90;;;5.90;80.40;;;;;;4798859;29;20046;-65
2021/03/09 03:08:13;;;;;;;13.43;8.60;;;5.70;81.00;;;;;;4797748;29;20050;-65
2021/03/09 03:10:46;;;;;;;11.55;8.93;;;5.60;82.10;;;;;;4798572;29;20039;-65
2021/03/09 03:13:13;;;;;;;20.00;13.80;;;5.70;83.90;;;;;;4813003;29;20906;-65
2021/03/09 03:15:42;;;;;;;22.02;13.27;;;6.10;84.00;;;;;;4798337;29;20154;-66
2021/03/09 03:18:18;;;;;;;19.10;14.15;;;6.10;82.30;;;;;;4813048;29;20168;-65
2021/03/09 03:20:47;;;;;;;15.20;10.55;;;6.20;82.50;;;;;;4798606;29;20053;-65
2021/03/09 03:23:14;;;;;;;21.20;14.43;;;6.20;81.80;;;;;;4812044;29;20053;-65
2021/03/09 03:25:42;;;;;;;16.55;12.00;;;6.30;82.30;;;;;;4798803;29;20050;-66
2021/03/09 03:28:09;;;;;;;11.63;7.40;;;6.50;81.30;;;;;;4798548;29;20058;-66
2021/03/09 03:30:36;;;;;;;16.00;10.85;;;6.60;82.20;;;;;;4798818;29;20125;-66
2021/03/09 03:33:02;;;;;;;14.52;10.75;;;6.90;81.90;;;;;;4798714;29;20065;-65
2021/03/09 03:35:28;;;;;;;17.23;9.57;;;7.10;81.40;;;;;;4798231;29;20051;-65
2021/03/09 03:37:54;;;;;;;10.57;7.72;;;7.20;80.40;;;;;;4812423;29;20051;-66
2021/03/09 03:40:22;;;;;;;17.48;12.60;;;7.20;80.20;;;;;;4798526;29;20122;-66
2021/03/09 03:42:48;;;;;;;11.02;8.30;;;7.00;80.00;;;;;;4798234;29;20048;-65
2021/03/09 03:45:17;;;;;;;15.30;10.52;;;6.80;80.20;;;;;;4798499;29;20045;-66
2021/03/09 03:47:43;;;;;;;15.95;11.82;;;6.80;81.50;;;;;;4797539;29;20050;-67
2021/03/09 03:50:11;;;;;;;14.57;11.27;;;6.80;80.90;;;;;;4798314;29;20119;-66
2021/03/09 03:53:14;;;;;;;16.95;12.00;;;6.80;80.10;;;;;;4798413;29;20130;-66
2021/03/09 03:55:54;;;;;;;17.20;10.77;;;6.60;79.10;;;;;;4798321;29;20125;-66
2021/03/09 03:58:34;;;;;;;14.75;11.02;;;6.30;79.90;;;;;;4797755;29;20449;-68
2021/03/09 04:01:02;;;;;;;15.13;10.75;;;6.40;81.50;;;;;;4798232;29;20047;-66
2021/03/09 04:03:31;;;;;;;14.93;10.65;;;6.40;80.80;;;;;;4794671;29;22295;-66
2021/03/09 04:05:59;;;;;;;15.50;10.90;;;6.60;81.10;;;;;;4797732;29;20060;-66
2021/03/09 04:08:25;;;;;;;12.48;9.13;;;6.60;80.80;;;;;;4792235;29;20125;-66
2021/03/09 04:10:53;;;;;;;13.95;9.88;;;6.30;80.30;;;;;;4796431;29;20057;-66
2021/03/09 04:13:19;;;;;;;13.70;10.30;;;6.30;81.50;;;;;;4797393;29;20048;-68
2021/03/09 04:15:47;;;;;;;12.45;9.43;;;6.00;81.00;;;;;;4797127;29;20205;-67
2021/03/09 04:18:15;;;;;;;14.38;11.23;;;5.90;82.30;;;;;;4797557;29;20039;-66
2021/03/09 04:20:42;;;;;;;14.23;10.05;;;5.70;82.10;;;;;;4796932;29;20514;-67
2021/03/09 04:23:09;;;;;;;15.90;10.95;;;5.80;83.30;;;;;;4777295;29;20049;-66
2021/03/09 04:25:38;;;;;;;10.25;7.05;;;5.80;82.20;;;;;;4797522;29;20043;-66
2021/03/09 04:28:05;;;;;;;14.63;9.82;;;5.70;83.10;;;;;;4797334;29;20100;-66
2021/03/09 04:30:32;;;;;;;13.98;10.88;;;5.80;83.60;;;;;;4811825;29;20130;-67
2021/03/09 04:32:59;;;;;;;15.77;11.50;;;5.70;82.90;;;;;;4797225;29;20043;-67
2021/03/09 04:35:25;;;;;;;13.57;9.13;;;5.60;83.00;;;;;;4796319;29;20121;-67
2021/03/09 04:37:51;;;;;;;16.30;11.15;;;5.50;83.10;;;;;;4797188;29;20043;-67
2021/03/09 04:40:18;;;;;;;15.32;11.52;;;5.30;83.90;;;;;;4796744;29;20046;-68
2021/03/09 04:42:44;;;;;;;16.70;11.30;;;5.20;84.20;;;;;;4797097;29;20049;-67
2021/03/09 04:45:10;;;;;;;12.63;9.38;;;5.10;84.10;;;;;;4796872;29;20496;-67
2021/03/09 04:47:36;;;;;;;14.95;10.35;;;5.20;85.00;;;;;;4811028;29;20121;-67
2021/03/09 04:50:05;;;;;;;17.25;12.15;;;5.50;85.50;;;;;;4791945;29;20035;-67
2021/03/09 04:52:31;;;;;;;15.32;12.38;;;5.60;84.20;;;;;;4796277;29;20043;-67
2021/03/09 04:54:57;;;;;;;16.63;11.75;;;5.40;83.50;;;;;;4790704;29;20053;-67
2021/03/09 04:57:40;;;;;;;17.60;12.90;;;5.30;83.90;;;;;;4796721;29;20050;-67
2021/03/09 05:00:17;;;;;;;11.30;7.90;;;5.20;84.20;;;;;;4796956;29;20039;-67
2021/03/09 05:02:45;;;;;;;14.95;11.43;;;5.20;84.80;;;;;;4796663;29;20307;-69
2021/03/09 05:05:12;;;;;;;12.20;9.43;;;5.60;85.40;;;;;;4796450;29;20412;-67
2021/03/09 05:07:38;;;;;;;16.98;11.88;;;5.70;84.60;;;;;;4791088;29;20121;-67
2021/03/09 05:10:06;;;;;;;17.25;12.15;;;5.60;84.10;;;;;;4796678;29;20506;-68
2021/03/09 05:12:34;;;;;;;17.42;12.15;;;5.40;84.10;;;;;;4795600;29;20063;-68
2021/03/09 05:14:59;;;;;;;19.10;12.38;;;5.20;84.30;;;;;;4796255;29;20516;-68
2021/03/09 05:17:26;;;;;;;16.67;11.50;;;5.10;84.70;;;;;;4796390;29;20053;-68
2021/03/09 05:19:51;;;;;;;18.02;12.65;;;5.10;85.40;;;;;;4796677;29;20043;-68
2021/03/09 05:22:17;;;;;;;19.40;12.82;;;5.10;85.20;;;;;;4796974;29;20051;-68
2021/03/09 05:24:43;;;;;;;20.08;13.20;;;5.00;85.10;;;;;;4795712;29;20496;-68
2021/03/09 05:27:09;;;;;;;20.02;13.55;;;4.90;85.30;;;;;;4795469;29;20046;-69
2021/03/09 05:29:35;;;;;;;14.93;9.18;;;4.80;85.40;;;;;;4796500;29;20047;-68
2021/03/09 05:32:02;;;;;;;18.80;12.73;;;4.90;86.10;;;;;;4797166;29;20038;-68
2021/03/09 05:34:27;;;;;;;18.17;13.20;;;4.90;86.50;;;;;;4790368;29;20495;-69
2021/03/09 05:36:53;;;;;;;22.13;13.73;;;5.00;86.30;;;;;;4796690;29;20039;-69
2021/03/09 05:39:19;;;;;;;19.25;13.45;;;5.00;86.00;;;;;;4795970;29;20464;-69
2021/03/09 05:41:45;;;;;;;21.05;14.02;;;4.90;85.80;;;;;;4796906;29;20042;-67
2021/03/09 05:44:11;;;;;;;21.00;14.90;;;4.90;86.10;;;;;;4796637;29;20039;-67
2021/03/09 05:46:36;;;;;;;21.77;14.35;;;4.80;86.00;;;;;;4799360;29;20038;-68
2021/03/09 05:49:03;;;;;;;21.98;14.25;;;4.90;86.30;;;;;;4800465;29;20046;-68
2021/03/09 05:51:31;;;;;;;56.25;15.75;;;4.80;86.10;;;;;;4799759;29;20194;-68
2021/03/09 05:53:57;;;;;;;21.83;14.52;;;4.90;86.70;;;;;;4799637;29;20051;-68
2021/03/09 05:56:24;;;;;;;19.08;13.50;;;5.00;86.40;;;;;;4800117;29;20039;-68
2021/03/09 05:58:51;;;;;;;16.80;10.68;;;5.00;86.40;;;;;;4793900;29;20411;-69
2021/03/09 06:01:17;;;;;;;20.67;13.73;;;5.10;86.70;;;;;;4800046;29;20053;-68
2021/03/09 06:03:43;;;;;;;21.25;14.65;;;5.30;87.10;;;;;;4812993;29;20039;-68
2021/03/09 06:06:11;;;;;;;16.35;12.27;;;5.30;86.20;;;;;;4799923;29;20115;-68
2021/03/09 06:08:37;;;;;;;14.20;9.18;;;5.40;86.70;;;;;;4799485;29;20046;-68
2021/03/09 06:11:13;;;;;;;21.58;14.77;;;5.60;86.50;;;;;;4799570;29;20051;-68
2021/03/09 06:13:39;;;;;;;21.92;15.77;;;5.90;86.70;;;;;;4793227;29;20047;-68
2021/03/09 06:16:05;;;;;;;11.65;8.82;;;5.80;85.10;;;;;;4798434;29;20734;-69
2021/03/09 06:18:31;;;;;;;20.98;15.45;;;5.60;85.60;;;;;;4793333;29;20498;-68
2021/03/09 06:21:13;;;;;;;18.08;13.25;;;6.00;86.70;;;;;;4799424;29;20046;-68
2021/03/09 06:23:40;;;;;;;23.13;14.50;;;6.40;85.90;;;;;;4798218;29;20038;-68
2021/03/09 06:26:33;;;;;;;15.10;8.70;;;6.60;84.40;;;;;;4799406;29;20050;-68
2021/03/09 06:29:07;;;;;;;23.13;15.57;;;6.80;84.20;;;;;;4799397;29;20039;-68
2021/03/09 06:31:34;;;;;;;20.05;14.85;;;6.60;83.90;;;;;;4799160;29;20043;-67
2021/03/09 06:34:26;;;;;;;22.45;15.50;;;6.70;83.90;;;;;;4797194;29;20042;-62
2021/03/09 06:37:07;;;;;;;26.45;19.42;;;6.50;82.70;;;;;;4785669;29;20133;-61
2021/03/09 06:40:06;;;;;;;30.95;19.10;;;6.10;83.20;;;;;;4797753;29;20053;-65
2021/03/09 06:42:37;;;;;;;35.28;21.80;;;5.80;83.90;;;;;;4797636;29;20139;-62
2021/03/09 06:45:05;;;;;;;35.30;20.58;;;5.50;84.90;;;;;;4776134;29;20037;-61
2021/03/09 06:47:54;;;;;;;29.25;19.27;;;5.30;85.30;;;;;;4798135;29;20058;-64
2021/03/09 06:50:33;;;;;;;34.05;20.73;;;5.30;85.80;;;;;;4798526;29;20059;-61
2021/03/09 06:52:59;;;;;;;33.53;21.63;;;5.20;86.10;;;;;;4798832;29;20047;-61
2021/03/09 06:55:33;;;;;;;41.00;22.83;;;5.10;86.20;;;;;;4798938;29;20172;-61
2021/03/09 06:58:05;;;;;;;;;;;5.10;86.50;;;;;;4797912;29;20047;-61
2021/03/09 07:00:32;;;;;;;36.40;21.52;;;5.00;86.20;;;;;;4812665;29;19990;-60
2021/03/09 07:02:57;;;;;;;29.75;18.90;;;5.00;86.80;;;;;;4798360;29;20123;-60
2021/03/09 07:05:23;;;;;;;31.45;19.45;;;4.90;86.90;;;;;;4791543;29;20478;-60
2021/03/09 07:07:49;;;;;;;35.15;19.42;;;4.90;87.00;;;;;;4798323;29;20050;-61
2021/03/09 07:10:17;;;;;;;30.67;19.42;;;4.90;87.20;;;;;;4792339;29;20073;-60
2021/03/09 07:12:46;;;;;;;37.70;20.92;;;4.80;87.10;;;;;;4798248;29;20042;-61
2021/03/09 07:15:14;;;;;;;33.95;19.70;;;4.80;87.40;;;;;;4797452;29;20540;-61
2021/03/09 07:17:41;;;;;;;33.38;19.30;;;4.80;87.40;;;;;;4797671;29;20081;-61
2021/03/09 07:20:12;;;;;;;35.72;20.15;;;4.80;87.90;;;;;;4798162;29;20050;-61
2021/03/09 07:22:40;;;;;;;33.70;19.70;;;4.70;87.70;;;;;;4797717;29;20049;-61
2021/03/09 07:25:12;;;;;;;29.10;20.17;;;4.80;87.80;;;;;;4797797;29;20046;-65
2021/03/09 07:27:46;;;;;;;35.00;20.73;;;4.80;87.90;;;;;;4798183;29;20054;-63
2021/03/09 07:30:14;;;;;;;36.05;20.45;;;4.80;87.80;;;;;;4797883;29;20039;-63
2021/03/09 07:32:43;;;;;;;36.55;20.98;;;4.80;88.10;;;;;;4796823;29;20838;-64
2021/03/09 07:35:10;;;;;;;36.25;19.90;;;4.80;88.20;;;;;;4795505;29;20050;-64
2021/03/09 07:37:38;;;;;;;36.67;20.90;;;4.80;88.00;;;;;;4796488;29;20053;-64
2021/03/09 07:40:07;;;;;;;38.03;20.30;;;4.80;87.80;;;;;;4811289;29;20046;-64
2021/03/09 07:42:33;;;;;;;35.20;19.98;;;4.70;88.50;;;;;;4811880;29;20047;-64
2021/03/09 07:45:01;;;;;;;12.82;9.05;;;4.70;88.20;;;;;;4796576;29;20049;-64
2021/03/09 07:47:28;;;;;;;16.77;10.32;;;5.20;89.10;;;;;;4797086;29;20039;-64
2021/03/09 07:49:54;;;;;;;26.33;16.92;;;5.90;89.30;;;;;;4791201;29;20054;-64
2021/03/09 07:52:21;;;;;;;10.43;7.88;;;6.10;86.80;;;;;;4795646;29;20460;-64
2021/03/09 07:55:15;;;;;;;14.65;9.93;;;6.10;86.30;;;;;;4796952;29;20047;-65
2021/03/09 07:57:42;;;;;;;17.17;10.65;;;6.90;87.30;;;;;;4800073;29;20047;-64
2021/03/09 08:00:11;;;;;;;17.95;11.85;;;7.80;85.70;;;;;;4796836;29;20097;-64
2021/03/09 08:02:56;;;;;;;17.63;11.13;;;8.40;82.20;;;;;;4790095;29;20047;-66
2021/03/09 08:05:28;;;;;;;10.15;7.03;;;8.90;80.50;;;;;;4796551;29;20062;-64
2021/03/09 08:08:04;;;;;;;23.00;15.48;;;9.40;79.60;;;;;;4796827;29;20070;-64
2021/03/09 08:10:41;;;;;;;13.57;9.32;;;9.80;76.40;;;;;;4791381;29;20039;-63
2021/03/09 08:13:07;;;;;;;13.50;10.00;;;9.50;75.90;;;;;;4795383;29;20051;-66
2021/03/09 08:15:36;;;;;;;10.25;6.88;;;9.40;76.60;;;;;;4796852;29;20035;-67
2021/03/09 08:18:24;;;;;;;12.05;7.63;;;9.60;77.10;;;;;;4795881;29;20066;-68
2021/03/09 08:21:00;;;;;;;9.82;6.07;;;9.80;76.40;;;;;;4796925;29;20050;-67
2021/03/09 08:23:46;;;;;;;10.50;6.75;;;10.00;75.90;;;;;;4797671;29;20442;-68
2021/03/09 08:26:15;;;;;;;13.30;10.20;;;10.20;75.40;;;;;;4794069;29;20054;-65
2021/03/09 08:28:43;;;;;;;14.10;8.38;;;10.10;74.20;;;;;;4797155;29;20042;-64
2021/03/09 08:31:09;;;;;;;10.32;6.47;;;10.10;74.10;;;;;;4796652;29;20405;-64
2021/03/09 08:33:39;;;;;;;6.00;5.00;;;10.10;74.20;;;;;;4796586;29;20051;-71
2021/03/09 08:36:20;;;;;;;9.02;6.30;;;10.30;74.20;;;;;;4794719;29;20129;-69
2021/03/09 08:39:13;;;;;;;14.38;10.68;;;10.50;72.40;;;;;;4795071;29;20054;-69
2021/03/09 08:41:42;;;;;;;6.75;5.57;;;10.10;71.50;;;;;;4810410;29;20109;-68
2021/03/09 08:44:16;;;;;;;18.25;9.55;;;9.90;73.70;;;;;;4796485;29;20050;-70
2021/03/09 08:47:04;;;;;;;11.85;6.90;;;10.10;72.70;;;;;;4795619;29;20504;-66
2021/03/09 08:49:36;;;;;;;11.77;7.22;;;9.80;73.00;;;;;;4791716;29;20050;-67
2021/03/09 08:52:06;;;;;;;10.30;6.25;;;9.70;73.40;;;;;;4794226;29;21138;-66
2021/03/09 08:54:36;;;;;;;7.75;6.15;;;9.90;73.70;;;;;;4795961;29;20122;-69
2021/03/09 08:57:23;;;;;;;10.55;8.70;;;10.20;73.40;;;;;;4796310;29;20039;-68
2021/03/09 08:59:50;;;;;;;10.90;6.75;;;10.30;72.50;;;;;;4795101;29;20057;-68
2021/03/09 09:02:24;;;;;;;12.07;6.22;;;10.40;72.40;;;;;;4796689;29;20047;-66
2021/03/09 09:04:55;;;;;;;10.85;8.73;;;10.50;72.30;;;;;;4808873;29;20129;-65
2021/03/09 09:07:25;;;;;;;10.15;7.20;;;10.60;71.70;;;;;;4796600;29;20114;-64
2021/03/09 09:09:54;;;;;;;15.77;12.02;;;10.50;71.40;;;;;;4795724;29;20039;-64
2021/03/09 09:12:20;;;;;;;11.00;8.48;;;10.40;70.50;;;;;;4796537;29;20047;-65
2021/03/09 09:14:47;;;;;;;16.50;12.18;;;10.10;70.60;;;;;;4796318;29;20058;-65
2021/03/09 09:17:12;;;;;;;15.18;10.73;;;9.80;70.80;;;;;;4790102;29;20054;-64
2021/03/09 09:19:38;;;;;;;14.20;11.38;;;9.70;71.20;;;;;;4795668;29;20058;-66
2021/03/09 09:22:05;;;;;;;13.43;9.88;;;9.50;71.30;;;;;;4798563;29;20061;-65
2021/03/09 09:24:30;;;;;;;8.27;6.18;;;9.30;71.30;;;;;;4799429;29;20047;-65
2021/03/09 09:26:58;;;;;;;13.02;9.55;;;9.20;72.60;;;;;;4800254;29;20143;-65
2021/03/09 09:29:24;;;;;;;9.93;7.70;;;9.60;72.80;;;;;;4798980;29;20083;-64
2021/03/09 09:31:58;;;;;;;8.30;5.90;;;9.80;71.50;;;;;;4799129;29;20047;-65
2021/03/09 09:34:58;;;;;;;8.90;6.65;;;10.00;71.90;;;;;;4812127;29;20045;-65
2021/03/09 09:37:24;;;;;;;9.35;6.25;;;10.30;71.90;;;;;;4799509;29;20132;-66
2021/03/09 09:39:50;;;;;;;12.45;8.98;;;10.50;70.90;;;;;;4793794;29;20054;-66
2021/03/09 09:42:18;;;;;;;15.30;11.63;;;10.80;70.20;;;;;;4812999;29;20468;-65
2021/03/09 09:44:45;;;;;;;13.20;10.00;;;10.80;69.10;;;;;;4799019;29;20077;-66
2021/03/09 09:47:11;;;;;;;11.10;8.57;;;10.60;69.30;;;;;;4813418;29;20058;-66
2021/03/09 09:49:41;;;;;;;15.43;10.38;;;10.50;69.60;;;;;;4797944;29;20552;-67
2021/03/09 09:52:11;;;;;;;14.05;10.32;;;10.50;69.30;;;;;;4799529;29;20429;-66
2021/03/09 09:54:37;;;;;;;10.32;7.68;;;10.40;69.00;;;;;;4794959;29;20100;-67
2021/03/09 09:57:12;;;;;;;10.32;6.28;;;10.50;69.70;;;;;;4791850;29;20500;-66
2021/03/09 09:59:38;;;;;;;10.65;7.30;;;10.70;69.90;;;;;;4797633;29;20054;-66
2021/03/09 10:02:21;;;;;;;8.95;6.57;;;10.80;69.20;;;;;;4798099;29;20099;-69
2021/03/09 10:04:51;;;;;;;10.18;7.05;;;11.00;69.20;;;;;;4793546;29;20229;-69
2021/03/09 10:07:22;;;;;;;12.52;9.18;;;11.10;68.80;;;;;;4797410;29;20057;-69
2021/03/09 10:10:07;;;;;;;16.17;10.88;;;11.10;68.10;;;;;;4798877;29;20061;-68
2021/03/09 10:12:37;;;;;;;11.27;7.68;;;11.10;68.00;;;;;;4797334;29;20042;-66
2021/03/09 10:15:08;;;;;;;13.38;10.07;;;11.00;68.00;;;;;;4797129;29;20066;-67
2021/03/09 10:17:35;;;;;;;13.52;9.77;;;10.80;67.50;;;;;;4793049;29;20570;-67
2021/03/09 10:20:21;;;;;;;14.77;10.82;;;10.60;68.10;;;;;;4795451;29;20094;-67
2021/03/09 10:22:51;;;;;;;15.95;11.60;;;10.60;68.60;;;;;;4796981;29;20055;-67
2021/03/09 10:25:16;;;;;;;9.00;6.97;;;10.70;68.30;;;;;;4796052;29;20553;-67
2021/03/09 10:27:43;;;;;;;12.90;9.70;;;10.80;68.00;;;;;;4798794;29;20046;-67
2021/03/09 10:30:09;;;;;;;8.68;7.07;;;10.80;67.50;;;;;;4778711;29;20050;-66
2021/03/09 10:32:52;;;;;;;10.40;7.93;;;10.70;67.90;;;;;;4797668;29;20050;-67
2021/03/09 10:35:18;;;;;;;13.13;9.13;;;10.90;68.40;;;;;;4799077;29;20042;-68
2021/03/09 10:37:44;;;;;;;8.77;6.10;;;11.10;67.50;;;;;;4799025;29;20795;-67
2021/03/09 10:40:14;;;;;;;13.50;11.02;;;11.20;67.30;;;;;;4798393;29;20964;-67
2021/03/09 10:42:43;;;;;;;11.13;8.15;;;11.30;66.70;;;;;;4796298;29;20085;-67
2021/03/09 10:45:26;;;;;;;13.20;10.35;;;11.10;66.00;;;;;;4797774;29;20087;-66
2021/03/09 10:47:57;;;;;;;15.02;11.80;;;10.90;66.50;;;;;;4799123;29;20549;-67
2021/03/09 10:50:25;;;;;;;10.43;7.18;;;10.80;66.60;;;;;;4799348;29;20067;-67
2021/03/09 10:52:51;;;;;;;16.13;10.43;;;10.70;67.10;;;;;;4798826;29;20043;-67
2021/03/09 10:55:17;;;;;;;11.98;9.70;;;10.70;67.00;;;;;;4798593;29;20151;-67
2021/03/09 10:57:44;;;;;;;11.40;9.20;;;10.50;67.20;;;;;;4798921;29;20062;-69
2021/03/09 11:00:15;;;;;;;7.97;6.15;;;10.30;67.40;;;;;;4811437;29;20066;-70
2021/03/09 11:02:42;;;;;;;10.02;6.93;;;10.30;68.20;;;;;;4797583;29;20403;-67
2021/03/09 11:05:08;;;;;;;10.95;8.75;;;10.20;68.60;;;;;;4796144;29;20055;-67
2021/03/09 11:07:35;;;;;;;10.30;7.97;;;10.10;68.00;;;;;;4798561;29;20035;-68
2021/03/09 11:10:01;;;;;;;12.40;9.82;;;10.10;68.40;;;;;;4797411;29;20142;-68
2021/03/09 11:12:27;;;;;;;13.68;10.10;;;9.90;68.10;;;;;;4797185;29;20050;-70
2021/03/09 11:14:52;;;;;;;12.35;10.10;;;9.80;68.30;;;;;;4798255;29;20448;-72
2021/03/09 11:17:18;;;;;;;13.85;11.43;;;9.80;68.30;;;;;;4798086;29;20063;-69
2021/03/09 11:19:44;;;;;;;11.65;9.32;;;9.60;68.40;;;;;;4797226;29;20503;-75
2021/03/09 11:22:10;;;;;;;12.38;9.52;;;9.50;68.80;;;;;;4798060;29;20043;-71
2021/03/09 11:24:36;;;;;;;12.75;10.60;;;9.30;68.60;;;;;;4797781;29;20047;-68
2021/03/09 11:27:04;;;;;;;13.65;10.43;;;9.30;69.00;;;;;;4796909;29;20046;-70
2021/03/09 11:29:31;;;;;;;13.82;10.27;;;9.20;69.40;;;;;;4792397;29;20078;-72
2021/03/09 11:31:57;;;;;;;8.85;7.15;;;9.20;69.50;;;;;;4798162;29;20047;-73
2021/03/09 11:34:24;;;;;;;10.77;8.60;;;9.10;70.00;;;;;;4796311;29;20043;-70
2021/03/09 11:36:51;;;;;;;13.48;10.75;;;9.00;70.00;;;;;;4798239;29;20064;-69
2021/03/09 11:39:18;;;;;;;10.18;7.28;;;8.90;70.00;;;;;;4797863;29;20039;-69
2021/03/09 11:41:44;;;;;;;13.82;10.23;;;8.80;70.70;;;;;;4812372;29;20050;-69
2021/03/09 11:44:10;;;;;;;12.90;10.70;;;9.10;71.30;;;;;;4797678;29;20043;-68
2021/03/09 11:46:37;;;;;;;8.43;6.40;;;9.30;70.50;;;;;;4797998;29;20051;-68
2021/03/09 11:49:04;;;;;;;11.27;8.40;;;9.50;70.80;;;;;;4790891;29;20383;-67
2021/03/09 11:51:30;;;;;;;12.00;7.95;;;9.50;70.70;;;;;;4798145;29;20131;-67
2021/03/09 11:53:56;;;;;;;13.82;9.88;;;9.40;70.50;;;;;;4798482;29;20053;-67
2021/03/09 11:56:22;;;;;;;13.75;10.88;;;9.40;70.90;;;;;;4791121;29;20042;-67
2021/03/09 11:58:48;;;;;;;12.23;9.13;;;9.50;70.80;;;;;;4797367;29;20039;-66
2021/03/09 12:01:14;;;;;;;12.48;10.02;;;9.60;69.60;;;;;;4797802;29;20456;-66
2021/03/09 12:03:40;;;;;;;10.82;8.52;;;9.50;69.10;;;;;;4797856;29;20503;-68
2021/03/09 12:06:06;;;;;;;11.27;9.32;;;9.30;69.00;;;;;;4790646;29;20047;-67
2021/03/09 12:08:32;;;;;;;14.57;10.85;;;9.10;69.10;;;;;;4797426;29;20050;-68
2021/03/09 12:10:58;;;;;;;8.13;6.63;;;8.90;69.30;;;;;;4797731;29;20043;-67
2021/03/09 12:13:24;;;;;;;11.75;9.68;;;8.70;70.70;;;;;;4797927;29;20357;-67
2021/03/09 12:15:49;;;;;;;11.48;9.52;;;9.00;70.80;;;;;;4797814;29;20070;-68
2021/03/09 12:18:15;;;;;;;8.63;6.93;;;9.10;70.20;;;;;;4796284;29;20058;-67
2021/03/09 12:20:42;;;;;;;12.13;9.73;;;9.30;70.90;;;;;;4797542;29;20133;-67
2021/03/09 12:23:07;;;;;;;15.45;12.13;;;9.50;70.10;;;;;;4797418;29;20480;-68
2021/03/09 12:25:34;;;;;;;10.75;9.18;;;9.60;69.00;;;;;;4790050;29;20480;-67
2021/03/09 12:28:00;;;;;;;13.82;12.00;;;9.60;69.50;;;;;;4795727;29;20144;-67
2021/03/09 12:30:26;;;;;;;13.98;11.73;;;9.60;69.50;;;;;;4794534;29;20039;-67
2021/03/09 12:32:52;;;;;;;14.07;10.85;;;9.60;69.10;;;;;;4793846;29;20047;-67
2021/03/09 12:35:18;;;;;;;7.22;5.47;;;9.60;68.70;;;;;;4777357;29;20539;-67
2021/03/09 12:37:43;;;;;;;9.07;7.60;;;9.50;69.70;;;;;;4795868;29;20034;-67
2021/03/09 12:40:10;;;;;;;8.40;6.60;;;9.80;69.90;;;;;;4795423;29;20047;-68
2021/03/09 12:42:36;;;;;;;10.23;6.85;;;10.10;69.70;;;;;;4794529;29;20074;-69
2021/03/09 12:45:04;;;;;;;8.88;6.35;;;10.30;69.00;;;;;;4795152;29;20051;-69
2021/03/09 12:47:30;;;;;;;8.10;6.82;;;10.40;68.90;;;;;;4796189;29;20049;-69
2021/03/09 12:49:56;;;;;;;7.32;6.07;;;10.40;68.50;;;;;;4796507;29;20043;-70